sensor_id;sensor_type;location;lat;lon;timestamp;P1;durP1;ratioP1;P2;durP2;ratioP2
45065;SDS011;30830;53.704;10.004;2023-02-22T00:01:08;17.75;;;8.88;;
45065;SDS011;30830;53.704;10.004;2023-02-22T00:03:52;14.50;;;8.68;;
45065;SDS011;30830;53.704;10.004;2023-02-22T00:06:18;16.63;;;8.65;;
45065;SDS011;30830;53.704;10.004;2023-02-22T00:08:47;13.65;;;8.93;;
45065;SDS011;30830;53.704;10.004;2023-02-22T00:11:13;18.73;;;10.23;;
45065;SDS011;30830;53.704;10.004;2023-02-22T00:13:40;20.48;;;9.82;;
45065;SDS011;30830;53.704;10.004;2023-02-22T00:16:12;15.82;;;8.95;;
45065;SDS011;30830;53.704;10.004;2023-02-22T00:18:40;17.98;;;9.60;;
45065;SDS011;30830;53.704;10.004;2023-02-22T00:21:06;17.52;;;9.52;;
45065;SDS011;30830;53.704;10.004;2023-02-22T00:23:34;18.25;;;9.10;;
45065;SDS011;30830;53.704;10.004;2023-02-22T00:26:04;21.40;;;9.25;;
45065;SDS011;30830;53.704;10.004;2023-02-22T00:28:33;16.90;;;9.05;;
45065;SDS011;30830;53.704;10.004;2023-02-22T00:31:03;17.63;;;8.75;;
45065;SDS011;30830;53.704;10.004;2023-02-22T00:33:30;17.20;;;8.68;;
45065;SDS011;30830;53.704;10.004;2023-02-22T00:35:56;13.32;;;7.93;;
45065;SDS011;30830;53.704;10.004;2023-02-22T00:38:22;15.73;;;8.93;;
45065;SDS011;30830;53.704;10.004;2023-02-22T00:40:48;17.45;;;8.82;;
45065;SDS011;30830;53.704;10.004;2023-02-22T00:43:14;16.45;;;8.07;;
45065;SDS011;30830;53.704;10.004;2023-02-22T00:45:40;17.80;;;8.23;;
45065;SDS011;30830;53.704;10.004;2023-02-22T00:48:05;13.75;;;7.55;;
45065;SDS011;30830;53.704;10.004;2023-02-22T00:50:32;17.00;;;7.82;;
45065;SDS011;30830;53.704;10.004;2023-02-22T00:52:59;18.42;;;7.70;;
45065;SDS011;30830;53.704;10.004;2023-02-22T00:55:28;14.27;;;7.10;;
45065;SDS011;30830;53.704;10.004;2023-02-22T00:57:55;11.20;;;6.18;;
45065;SDS011;30830;53.704;10.004;2023-02-22T01:00:24;14.90;;;6.90;;
45065;SDS011;30830;53.704;10.004;2023-02-22T01:02:52;15.02;;;7.85;;
45065;SDS011;30830;53.704;10.004;2023-02-22T01:05:21;15.00;;;7.13;;
45065;SDS011;30830;53.704;10.004;2023-02-22T01:07:48;15.70;;;7.45;;
45065;SDS011;30830;53.704;10.004;2023-02-22T01:10:15;13.55;;;6.72;;
45065;SDS011;30830;53.704;10.004;2023-02-22T01:12:41;13.43;;;7.28;;
45065;SDS011;30830;53.704;10.004;2023-02-22T01:15:07;16.25;;;7.38;;
45065;SDS011;30830;53.704;10.004;2023-02-22T01:17:35;11.02;;;7.05;;
45065;SDS011;30830;53.704;10.004;2023-02-22T01:20:01;20.90;;;8.10;;
45065;SDS011;30830;53.704;10.004;2023-02-22T01:22:34;17.55;;;8.20;;
45065;SDS011;30830;53.704;10.004;2023-02-22T01:24:59;19.92;;;7.90;;
45065;SDS011;30830;53.704;10.004;2023-02-22T01:27:25;23.80;;;8.07;;
45065;SDS011;30830;53.704;10.004;2023-02-22T01:29:51;18.42;;;7.22;;
45065;SDS011;30830;53.704;10.004;2023-02-22T01:32:16;14.52;;;6.95;;
45065;SDS011;30830;53.704;10.004;2023-02-22T01:34:42;15.85;;;7.82;;
45065;SDS011;30830;53.704;10.004;2023-02-22T01:37:07;21.17;;;10.25;;
45065;SDS011;30830;53.704;10.004;2023-02-22T01:39:33;19.88;;;8.98;;
45065;SDS011;30830;53.704;10.004;2023-02-22T01:41:58;18.73;;;8.30;;
45065;SDS011;30830;53.704;10.004;2023-02-22T01:44:32;20.63;;;9.77;;
45065;SDS011;30830;53.704;10.004;2023-02-22T01:47:03;13.63;;;7.78;;
45065;SDS011;30830;53.704;10.004;2023-02-22T01:49:31;21.88;;;9.60;;
45065;SDS011;30830;53.704;10.004;2023-02-22T01:52:11;15.80;;;8.15;;
45065;SDS011;30830;53.704;10.004;2023-02-22T01:54:42;16.67;;;8.00;;
45065;SDS011;30830;53.704;10.004;2023-02-22T01:57:17;20.40;;;8.45;;
45065;SDS011;30830;53.704;10.004;2023-02-22T01:59:50;17.17;;;9.07;;
45065;SDS011;30830;53.704;10.004;2023-02-22T02:02:18;20.50;;;8.85;;
45065;SDS011;30830;53.704;10.004;2023-02-22T02:04:45;16.60;;;8.25;;
45065;SDS011;30830;53.704;10.004;2023-02-22T02:07:12;19.90;;;8.50;;
45065;SDS011;30830;53.704;10.004;2023-02-22T02:09:46;18.15;;;8.20;;
45065;SDS011;30830;53.704;10.004;2023-02-22T02:12:23;22.00;;;9.30;;
45065;SDS011;30830;53.704;10.004;2023-02-22T02:14:51;22.52;;;9.40;;
45065;SDS011;30830;53.704;10.004;2023-02-22T02:17:17;24.17;;;9.48;;
45065;SDS011;30830;53.704;10.004;2023-02-22T02:19:57;18.73;;;8.57;;
45065;SDS011;30830;53.704;10.004;2023-02-22T02:23:11;21.80;;;9.10;;
45065;SDS011;30830;53.704;10.004;2023-02-22T02:34:03;21.13;;;9.95;;
45065;SDS011;30830;53.704;10.004;2023-02-22T02:39:57;19.92;;;8.57;;
45065;SDS011;30830;53.704;10.004;2023-02-22T02:42:33;18.85;;;9.20;;
45065;SDS011;30830;53.704;10.004;2023-02-22T02:45:05;24.13;;;8.75;;
45065;SDS011;30830;53.704;10.004;2023-02-22T02:47:36;20.25;;;8.68;;
45065;SDS011;30830;53.704;10.004;2023-02-22T02:50:13;24.92;;;9.40;;
45065;SDS011;30830;53.704;10.004;2023-02-22T02:53:03;27.17;;;9.35;;
45065;SDS011;30830;53.704;10.004;2023-02-22T02:55:31;23.48;;;8.77;;
45065;SDS011;30830;53.704;10.004;2023-02-22T02:58:00;36.00;;;10.80;;
45065;SDS011;30830;53.704;10.004;2023-02-22T03:00:29;24.70;;;9.70;;
45065;SDS011;30830;53.704;10.004;2023-02-22T03:05:56;21.27;;;9.55;;
45065;SDS011;30830;53.704;10.004;2023-02-22T03:08:49;29.00;;;10.32;;
45065;SDS011;30830;53.704;10.004;2023-02-22T03:13:53;24.15;;;9.40;;
45065;SDS011;30830;53.704;10.004;2023-02-22T03:22:11;34.00;;;10.77;;
45065;SDS011;30830;53.704;10.004;2023-02-22T03:24:47;25.02;;;10.57;;
45065;SDS011;30830;53.704;10.004;2023-02-22T03:27:35;30.63;;;11.65;;
45065;SDS011;30830;53.704;10.004;2023-02-22T03:30:09;25.55;;;10.75;;
45065;SDS011;30830;53.704;10.004;2023-02-22T03:32:41;23.88;;;9.82;;
45065;SDS011;30830;53.704;10.004;2023-02-22T03:35:17;36.95;;;12.68;;
45065;SDS011;30830;53.704;10.004;2023-02-22T03:37:47;35.65;;;12.45;;
45065;SDS011;30830;53.704;10.004;2023-02-22T03:40:19;30.13;;;10.13;;
45065;SDS011;30830;53.704;10.004;2023-02-22T03:42:56;27.98;;;12.60;;
45065;SDS011;30830;53.704;10.004;2023-02-22T03:45:27;26.40;;;10.85;;
45065;SDS011;30830;53.704;10.004;2023-02-22T03:48:39;22.15;;;10.13;;
45065;SDS011;30830;53.704;10.004;2023-02-22T03:50:49;21.27;;;11.25;;
45065;SDS011;30830;53.704;10.004;2023-02-22T03:53:16;23.05;;;9.73;;
45065;SDS011;30830;53.704;10.004;2023-02-22T03:55:44;25.15;;;10.68;;
45065;SDS011;30830;53.704;10.004;2023-02-22T03:58:15;23.83;;;11.32;;
45065;SDS011;30830;53.704;10.004;2023-02-22T04:00:44;32.38;;;10.15;;
45065;SDS011;30830;53.704;10.004;2023-02-22T04:03:10;27.27;;;11.23;;
45065;SDS011;30830;53.704;10.004;2023-02-22T04:05:35;22.88;;;10.40;;
45065;SDS011;30830;53.704;10.004;2023-02-22T04:08:01;32.15;;;12.32;;
45065;SDS011;30830;53.704;10.004;2023-02-22T04:10:27;24.65;;;10.40;;
45065;SDS011;30830;53.704;10.004;2023-02-22T04:12:52;23.10;;;10.90;;
45065;SDS011;30830;53.704;10.004;2023-02-22T04:15:20;25.65;;;11.10;;
45065;SDS011;30830;53.704;10.004;2023-02-22T04:17:47;26.75;;;10.35;;
45065;SDS011;30830;53.704;10.004;2023-02-22T04:20:12;27.15;;;11.50;;
45065;SDS011;30830;53.704;10.004;2023-02-22T04:22:39;28.13;;;11.10;;
45065;SDS011;30830;53.704;10.004;2023-02-22T04:25:05;23.23;;;10.05;;
45065;SDS011;30830;53.704;10.004;2023-02-22T04:27:31;23.25;;;9.88;;
45065;SDS011;30830;53.704;10.004;2023-02-22T04:29:58;20.88;;;9.85;;
45065;SDS011;30830;53.704;10.004;2023-02-22T04:32:23;22.80;;;9.50;;
45065;SDS011;30830;53.704;10.004;2023-02-22T04:34:50;22.48;;;9.95;;
45065;SDS011;30830;53.704;10.004;2023-02-22T04:37:16;18.42;;;9.18;;
45065;SDS011;30830;53.704;10.004;2023-02-22T04:39:41;18.52;;;8.57;;
45065;SDS011;30830;53.704;10.004;2023-02-22T04:42:07;15.68;;;7.57;;
45065;SDS011;30830;53.704;10.004;2023-02-22T04:44:32;19.48;;;8.63;;
45065;SDS011;30830;53.704;10.004;2023-02-22T04:46:58;18.48;;;8.00;;
45065;SDS011;30830;53.704;10.004;2023-02-22T04:49:23;15.98;;;7.60;;
45065;SDS011;30830;53.704;10.004;2023-02-22T04:51:49;16.23;;;8.32;;
45065;SDS011;30830;53.704;10.004;2023-02-22T04:54:14;16.17;;;8.15;;
45065;SDS011;30830;53.704;10.004;2023-02-22T04:56:41;18.58;;;9.13;;
45065;SDS011;30830;53.704;10.004;2023-02-22T04:59:08;15.90;;;8.40;;
45065;SDS011;30830;53.704;10.004;2023-02-22T05:01:33;15.50;;;7.53;;
45065;SDS011;30830;53.704;10.004;2023-02-22T05:04:01;19.88;;;9.25;;
45065;SDS011;30830;53.704;10.004;2023-02-22T05:06:27;16.95;;;7.88;;
45065;SDS011;30830;53.704;10.004;2023-02-22T05:08:53;14.15;;;7.32;;
45065;SDS011;30830;53.704;10.004;2023-02-22T05:11:18;16.10;;;7.80;;
45065;SDS011;30830;53.704;10.004;2023-02-22T05:13:44;14.93;;;8.07;;
45065;SDS011;30830;53.704;10.004;2023-02-22T05:16:09;16.38;;;7.18;;
45065;SDS011;30830;53.704;10.004;2023-02-22T05:18:35;17.65;;;7.53;;
45065;SDS011;30830;53.704;10.004;2023-02-22T05:21:00;19.50;;;8.07;;
45065;SDS011;30830;53.704;10.004;2023-02-22T05:23:26;14.18;;;7.20;;
45065;SDS011;30830;53.704;10.004;2023-02-22T05:25:52;14.45;;;6.80;;
45065;SDS011;30830;53.704;10.004;2023-02-22T05:28:17;17.77;;;7.90;;
45065;SDS011;30830;53.704;10.004;2023-02-22T05:30:43;13.10;;;7.25;;
45065;SDS011;30830;53.704;10.004;2023-02-22T05:33:08;17.77;;;7.30;;
45065;SDS011;30830;53.704;10.004;2023-02-22T05:35:34;18.50;;;6.97;;
45065;SDS011;30830;53.704;10.004;2023-02-22T05:38:01;12.88;;;6.40;;
45065;SDS011;30830;53.704;10.004;2023-02-22T05:40:28;14.05;;;6.10;;
45065;SDS011;30830;53.704;10.004;2023-02-22T05:42:55;15.20;;;6.55;;
45065;SDS011;30830;53.704;10.004;2023-02-22T05:45:21;15.05;;;8.18;;
45065;SDS011;30830;53.704;10.004;2023-02-22T05:47:48;14.15;;;7.80;;
45065;SDS011;30830;53.704;10.004;2023-02-22T05:50:14;15.13;;;7.80;;
45065;SDS011;30830;53.704;10.004;2023-02-22T05:52:40;15.05;;;7.63;;
45065;SDS011;30830;53.704;10.004;2023-02-22T05:55:06;12.65;;;7.57;;
45065;SDS011;30830;53.704;10.004;2023-02-22T05:57:32;13.15;;;6.82;;
45065;SDS011;30830;53.704;10.004;2023-02-22T05:59:58;18.33;;;8.77;;
45065;SDS011;30830;53.704;10.004;2023-02-22T06:02:24;19.33;;;9.27;;
45065;SDS011;30830;53.704;10.004;2023-02-22T06:04:50;19.48;;;8.98;;
45065;SDS011;30830;53.704;10.004;2023-02-22T06:07:15;15.95;;;8.73;;
45065;SDS011;30830;53.704;10.004;2023-02-22T06:09:41;19.25;;;9.07;;
45065;SDS011;30830;53.704;10.004;2023-02-22T06:12:07;15.13;;;8.25;;
45065;SDS011;30830;53.704;10.004;2023-02-22T06:14:33;18.13;;;9.10;;
45065;SDS011;30830;53.704;10.004;2023-02-22T06:16:59;18.90;;;8.65;;
45065;SDS011;30830;53.704;10.004;2023-02-22T06:19:25;16.73;;;9.30;;
45065;SDS011;30830;53.704;10.004;2023-02-22T06:21:55;18.08;;;8.70;;
45065;SDS011;30830;53.704;10.004;2023-02-22T06:24:22;20.75;;;9.23;;
45065;SDS011;30830;53.704;10.004;2023-02-22T06:26:54;21.80;;;10.90;;
45065;SDS011;30830;53.704;10.004;2023-02-22T06:29:21;21.38;;;9.07;;
45065;SDS011;30830;53.704;10.004;2023-02-22T06:31:48;22.83;;;10.50;;
45065;SDS011;30830;53.704;10.004;2023-02-22T06:34:14;23.77;;;11.15;;
45065;SDS011;30830;53.704;10.004;2023-02-22T06:36:40;22.58;;;9.73;;
45065;SDS011;30830;53.704;10.004;2023-02-22T06:39:06;27.15;;;13.13;;
45065;SDS011;30830;53.704;10.004;2023-02-22T06:41:37;27.13;;;11.90;;
45065;SDS011;30830;53.704;10.004;2023-02-22T06:44:03;27.83;;;12.23;;
45065;SDS011;30830;53.704;10.004;2023-02-22T06:46:29;22.23;;;11.98;;
45065;SDS011;30830;53.704;10.004;2023-02-22T06:48:55;30.95;;;13.02;;
45065;SDS011;30830;53.704;10.004;2023-02-22T06:51:23;24.30;;;12.20;;
45065;SDS011;30830;53.704;10.004;2023-02-22T06:53:49;24.98;;;12.32;;
45065;SDS011;30830;53.704;10.004;2023-02-22T06:56:15;26.10;;;12.30;;
45065;SDS011;30830;53.704;10.004;2023-02-22T06:58:40;26.83;;;13.38;;
45065;SDS011;30830;53.704;10.004;2023-02-22T07:01:06;39.10;;;14.48;;
45065;SDS011;30830;53.704;10.004;2023-02-22T07:03:32;31.80;;;14.50;;
45065;SDS011;30830;53.704;10.004;2023-02-22T07:05:58;29.55;;;13.02;;
45065;SDS011;30830;53.704;10.004;2023-02-22T07:08:24;31.17;;;14.23;;
45065;SDS011;30830;53.704;10.004;2023-02-22T07:10:49;33.13;;;14.68;;
45065;SDS011;30830;53.704;10.004;2023-02-22T07:13:16;27.58;;;13.63;;
45065;SDS011;30830;53.704;10.004;2023-02-22T07:15:42;30.88;;;14.20;;
45065;SDS011;30830;53.704;10.004;2023-02-22T07:18:07;28.65;;;14.70;;
45065;SDS011;30830;53.704;10.004;2023-02-22T07:20:33;32.28;;;13.85;;
45065;SDS011;30830;53.704;10.004;2023-02-22T07:22:58;31.73;;;13.95;;
45065;SDS011;30830;53.704;10.004;2023-02-22T07:25:25;30.67;;;14.48;;
45065;SDS011;30830;53.704;10.004;2023-02-22T07:27:50;31.83;;;14.27;;
45065;SDS011;30830;53.704;10.004;2023-02-22T07:30:18;31.65;;;15.13;;
45065;SDS011;30830;53.704;10.004;2023-02-22T07:32:49;31.90;;;13.18;;
45065;SDS011;30830;53.704;10.004;2023-02-22T07:35:20;33.08;;;15.32;;
45065;SDS011;30830;53.704;10.004;2023-02-22T07:37:51;36.53;;;13.97;;
45065;SDS011;30830;53.704;10.004;2023-02-22T07:40:17;32.80;;;14.88;;
45065;SDS011;30830;53.704;10.004;2023-02-22T07:43:17;34.72;;;14.52;;
45065;SDS011;30830;53.704;10.004;2023-02-22T07:45:39;29.13;;;14.35;;
45065;SDS011;30830;53.704;10.004;2023-02-22T07:48:04;32.67;;;15.05;;
45065;SDS011;30830;53.704;10.004;2023-02-22T07:50:31;32.92;;;14.20;;
45065;SDS011;30830;53.704;10.004;2023-02-22T07:52:59;36.13;;;14.98;;
45065;SDS011;30830;53.704;10.004;2023-02-22T07:55:28;30.50;;;14.55;;
45065;SDS011;30830;53.704;10.004;2023-02-22T07:57:56;29.60;;;13.23;;
45065;SDS011;30830;53.704;10.004;2023-02-22T08:00:33;29.73;;;13.98;;
45065;SDS011;30830;53.704;10.004;2023-02-22T08:03:01;30.50;;;13.55;;
45065;SDS011;30830;53.704;10.004;2023-02-22T08:05:29;31.00;;;13.95;;
45065;SDS011;30830;53.704;10.004;2023-02-22T08:07:55;26.88;;;12.95;;
45065;SDS011;30830;53.704;10.004;2023-02-22T08:10:21;28.05;;;14.68;;
45065;SDS011;30830;53.704;10.004;2023-02-22T08:12:49;27.98;;;13.85;;
45065;SDS011;30830;53.704;10.004;2023-02-22T08:15:16;26.73;;;13.30;;
45065;SDS011;30830;53.704;10.004;2023-02-22T08:17:44;32.55;;;14.90;;
45065;SDS011;30830;53.704;10.004;2023-02-22T08:20:09;29.25;;;13.88;;
45065;SDS011;30830;53.704;10.004;2023-02-22T08:22:35;25.73;;;13.05;;
45065;SDS011;30830;53.704;10.004;2023-02-22T08:25:01;26.23;;;12.63;;
45065;SDS011;30830;53.704;10.004;2023-02-22T08:27:27;25.55;;;13.70;;
45065;SDS011;30830;53.704;10.004;2023-02-22T08:29:54;23.35;;;11.93;;
45065;SDS011;30830;53.704;10.004;2023-02-22T08:32:20;23.45;;;12.35;;
45065;SDS011;30830;53.704;10.004;2023-02-22T08:34:47;22.55;;;12.48;;
45065;SDS011;30830;53.704;10.004;2023-02-22T08:37:13;25.42;;;12.85;;
45065;SDS011;30830;53.704;10.004;2023-02-22T08:39:40;21.35;;;11.13;;
45065;SDS011;30830;53.704;10.004;2023-02-22T08:42:05;20.58;;;12.30;;
45065;SDS011;30830;53.704;10.004;2023-02-22T08:44:33;20.33;;;11.23;;
45065;SDS011;30830;53.704;10.004;2023-02-22T08:46:58;19.80;;;11.77;;
45065;SDS011;30830;53.704;10.004;2023-02-22T08:49:24;26.00;;;12.50;;
45065;SDS011;30830;53.704;10.004;2023-02-22T08:51:49;18.10;;;11.38;;
45065;SDS011;30830;53.704;10.004;2023-02-22T08:54:15;19.08;;;11.10;;
45065;SDS011;30830;53.704;10.004;2023-02-22T08:56:42;23.63;;;11.38;;
45065;SDS011;30830;53.704;10.004;2023-02-22T08:59:08;15.43;;;10.45;;
45065;SDS011;30830;53.704;10.004;2023-02-22T09:01:33;19.60;;;12.05;;
45065;SDS011;30830;53.704;10.004;2023-02-22T09:03:59;21.83;;;12.10;;
45065;SDS011;30830;53.704;10.004;2023-02-22T09:06:25;20.98;;;11.30;;
45065;SDS011;30830;53.704;10.004;2023-02-22T09:08:50;19.42;;;11.35;;
45065;SDS011;30830;53.704;10.004;2023-02-22T09:11:16;23.88;;;12.52;;
45065;SDS011;30830;53.704;10.004;2023-02-22T09:13:42;15.85;;;10.48;;
45065;SDS011;30830;53.704;10.004;2023-02-22T09:16:08;16.50;;;11.55;;
45065;SDS011;30830;53.704;10.004;2023-02-22T09:18:34;19.52;;;11.88;;
45065;SDS011;30830;53.704;10.004;2023-02-22T09:21:01;19.45;;;11.82;;
45065;SDS011;30830;53.704;10.004;2023-02-22T09:23:27;19.80;;;11.65;;
45065;SDS011;30830;53.704;10.004;2023-02-22T09:25:52;21.65;;;11.48;;
45065;SDS011;30830;53.704;10.004;2023-02-22T09:28:18;20.80;;;10.93;;
45065;SDS011;30830;53.704;10.004;2023-02-22T09:30:43;18.30;;;11.02;;
45065;SDS011;30830;53.704;10.004;2023-02-22T09:33:14;23.38;;;13.00;;
45065;SDS011;30830;53.704;10.004;2023-02-22T09:35:42;19.02;;;10.73;;
45065;SDS011;30830;53.704;10.004;2023-02-22T09:38:19;18.90;;;11.02;;
45065;SDS011;30830;53.704;10.004;2023-02-22T09:44:02;19.35;;;11.98;;
45065;SDS011;30830;53.704;10.004;2023-02-22T09:46:48;23.05;;;12.63;;
45065;SDS011;30830;53.704;10.004;2023-02-22T09:57:04;20.98;;;11.90;;
45065;SDS011;30830;53.704;10.004;2023-02-22T09:59:35;20.20;;;12.68;;
45065;SDS011;30830;53.704;10.004;2023-02-22T10:02:19;21.52;;;11.90;;
45065;SDS011;30830;53.704;10.004;2023-02-22T10:04:56;23.38;;;12.88;;
45065;SDS011;30830;53.704;10.004;2023-02-22T10:10:15;21.27;;;11.63;;
45065;SDS011;30830;53.704;10.004;2023-02-22T10:15:41;22.65;;;11.20;;
45065;SDS011;30830;53.704;10.004;2023-02-22T10:18:25;17.83;;;10.23;;
45065;SDS011;30830;53.704;10.004;2023-02-22T10:21:27;19.85;;;10.43;;
45065;SDS011;30830;53.704;10.004;2023-02-22T10:24:14;19.13;;;10.77;;
45065;SDS011;30830;53.704;10.004;2023-02-22T10:26:50;19.25;;;10.95;;
45065;SDS011;30830;53.704;10.004;2023-02-22T10:29:28;15.77;;;10.52;;
45065;SDS011;30830;53.704;10.004;2023-02-22T10:32:01;15.90;;;10.18;;
45065;SDS011;30830;53.704;10.004;2023-02-22T10:34:29;17.33;;;10.93;;
45065;SDS011;30830;53.704;10.004;2023-02-22T10:37:17;18.73;;;11.30;;
45065;SDS011;30830;53.704;10.004;2023-02-22T10:42:41;16.50;;;9.98;;
45065;SDS011;30830;53.704;10.004;2023-02-22T10:45:18;14.27;;;8.70;;
45065;SDS011;30830;53.704;10.004;2023-02-22T10:47:48;19.25;;;10.43;;
45065;SDS011;30830;53.704;10.004;2023-02-22T10:50:15;20.27;;;11.80;;
45065;SDS011;30830;53.704;10.004;2023-02-22T10:52:41;18.73;;;11.38;;
45065;SDS011;30830;53.704;10.004;2023-02-22T10:55:11;17.90;;;11.23;;
45065;SDS011;30830;53.704;10.004;2023-02-22T10:57:39;20.95;;;11.15;;
45065;SDS011;30830;53.704;10.004;2023-02-22T11:00:39;15.30;;;10.48;;
45065;SDS011;30830;53.704;10.004;2023-02-22T11:03:03;16.65;;;8.90;;
45065;SDS011;30830;53.704;10.004;2023-02-22T11:05:41;16.08;;;10.10;;
45065;SDS011;30830;53.704;10.004;2023-02-22T11:10:49;14.88;;;9.85;;
45065;SDS011;30830;53.704;10.004;2023-02-22T11:15:53;17.17;;;11.05;;
45065;SDS011;30830;53.704;10.004;2023-02-22T11:18:26;14.18;;;9.75;;
45065;SDS011;30830;53.704;10.004;2023-02-22T11:23:27;15.55;;;9.57;;
45065;SDS011;30830;53.704;10.004;2023-02-22T11:26:00;16.02;;;10.30;;
45065;SDS011;30830;53.704;10.004;2023-02-22T11:28:29;17.50;;;9.85;;
45065;SDS011;30830;53.704;10.004;2023-02-22T11:30:57;17.30;;;9.68;;
45065;SDS011;30830;53.704;10.004;2023-02-22T11:33:35;16.58;;;9.90;;
45065;SDS011;30830;53.704;10.004;2023-02-22T11:36:02;15.70;;;10.48;;
45065;SDS011;30830;53.704;10.004;2023-02-22T11:38:34;16.80;;;10.18;;
45065;SDS011;30830;53.704;10.004;2023-02-22T11:41:14;16.15;;;10.68;;
45065;SDS011;30830;53.704;10.004;2023-02-22T11:43:47;17.10;;;11.05;;
45065;SDS011;30830;53.704;10.004;2023-02-22T11:46:19;15.00;;;10.27;;
45065;SDS011;30830;53.704;10.004;2023-02-22T11:51:32;16.63;;;10.07;;
45065;SDS011;30830;53.704;10.004;2023-02-22T11:56:56;15.20;;;10.23;;
45065;SDS011;30830;53.704;10.004;2023-02-22T11:59:50;16.15;;;10.73;;
45065;SDS011;30830;53.704;10.004;2023-02-22T12:18:41;17.20;;;10.65;;
45065;SDS011;30830;53.704;10.004;2023-02-22T12:21:22;15.80;;;9.73;;
45065;SDS011;30830;53.704;10.004;2023-02-22T12:23:51;14.95;;;9.65;;
45065;SDS011;30830;53.704;10.004;2023-02-22T12:26:33;16.05;;;11.32;;
45065;SDS011;30830;53.704;10.004;2023-02-22T12:29:19;13.85;;;9.73;;
45065;SDS011;30830;53.704;10.004;2023-02-22T12:35:49;14.63;;;10.00;;
45065;SDS011;30830;53.704;10.004;2023-02-22T12:38:11;13.57;;;9.50;;
45065;SDS011;30830;53.704;10.004;2023-02-22T12:40:40;15.30;;;11.10;;
45065;SDS011;30830;53.704;10.004;2023-02-22T12:50:53;14.35;;;9.80;;
45065;SDS011;30830;53.704;10.004;2023-02-22T12:53:34;15.93;;;10.30;;
45065;SDS011;30830;53.704;10.004;2023-02-22T12:58:38;17.60;;;9.95;;
45065;SDS011;30830;53.704;10.004;2023-02-22T13:01:16;15.13;;;9.55;;
45065;SDS011;30830;53.704;10.004;2023-02-22T13:03:45;15.25;;;11.07;;
45065;SDS011;30830;53.704;10.004;2023-02-22T13:08:54;13.93;;;8.73;;
45065;SDS011;30830;53.704;10.004;2023-02-22T13:11:31;18.08;;;10.82;;
45065;SDS011;30830;53.704;10.004;2023-02-22T13:17:23;16.65;;;10.68;;
45065;SDS011;30830;53.704;10.004;2023-02-22T13:22:23;15.18;;;9.95;;
45065;SDS011;30830;53.704;10.004;2023-02-22T13:25:08;13.85;;;9.88;;
45065;SDS011;30830;53.704;10.004;2023-02-22T13:27:50;15.10;;;10.23;;
45065;SDS011;30830;53.704;10.004;2023-02-22T13:30:23;13.38;;;9.25;;
45065;SDS011;30830;53.704;10.004;2023-02-22T13:33:23;16.15;;;10.57;;
45065;SDS011;30830;53.704;10.004;2023-02-22T13:39:06;14.68;;;9.65;;
45065;SDS011;30830;53.704;10.004;2023-02-22T13:47:34;14.32;;;9.00;;
45065;SDS011;30830;53.704;10.004;2023-02-22T13:53:26;15.18;;;8.77;;
45065;SDS011;30830;53.704;10.004;2023-02-22T13:55:56;11.38;;;8.50;;
45065;SDS011;30830;53.704;10.004;2023-02-22T13:58:25;13.07;;;8.93;;
45065;SDS011;30830;53.704;10.004;2023-02-22T14:00:53;10.75;;;7.68;;
45065;SDS011;30830;53.704;10.004;2023-02-22T14:03:28;13.77;;;8.80;;
45065;SDS011;30830;53.704;10.004;2023-02-22T14:06:01;12.45;;;7.65;;
45065;SDS011;30830;53.704;10.004;2023-02-22T14:08:50;11.93;;;7.88;;
45065;SDS011;30830;53.704;10.004;2023-02-22T14:16:23;14.02;;;8.45;;
45065;SDS011;30830;53.704;10.004;2023-02-22T14:19:12;11.88;;;9.00;;
45065;SDS011;30830;53.704;10.004;2023-02-22T14:22:03;13.38;;;9.00;;
45065;SDS011;30830;53.704;10.004;2023-02-22T14:24:40;13.85;;;8.32;;
45065;SDS011;30830;53.704;10.004;2023-02-22T14:27:09;15.43;;;9.23;;
45065;SDS011;30830;53.704;10.004;2023-02-22T14:29:35;17.92;;;10.52;;
45065;SDS011;30830;53.704;10.004;2023-02-22T14:32:03;14.63;;;7.80;;
45065;SDS011;30830;53.704;10.004;2023-02-22T14:34:39;13.73;;;9.05;;
45065;SDS011;30830;53.704;10.004;2023-02-22T14:37:12;12.88;;;8.95;;
45065;SDS011;30830;53.704;10.004;2023-02-22T14:39:40;14.48;;;10.18;;
45065;SDS011;30830;53.704;10.004;2023-02-22T14:42:22;16.38;;;9.73;;
45065;SDS011;30830;53.704;10.004;2023-02-22T14:50:04;14.98;;;8.63;;
45065;SDS011;30830;53.704;10.004;2023-02-22T14:52:36;15.00;;;9.60;;
45065;SDS011;30830;53.704;10.004;2023-02-22T14:55:12;13.50;;;8.88;;
45065;SDS011;30830;53.704;10.004;2023-02-22T15:01:19;14.57;;;9.48;;
45065;SDS011;30830;53.704;10.004;2023-02-22T15:03:46;15.93;;;9.75;;
45065;SDS011;30830;53.704;10.004;2023-02-22T15:06:14;17.00;;;10.60;;
45065;SDS011;30830;53.704;10.004;2023-02-22T15:08:45;13.63;;;9.63;;
45065;SDS011;30830;53.704;10.004;2023-02-22T15:13:55;15.63;;;9.60;;
45065;SDS011;30830;53.704;10.004;2023-02-22T15:16:22;14.35;;;9.98;;
45065;SDS011;30830;53.704;10.004;2023-02-22T15:18:52;17.23;;;10.23;;
45065;SDS011;30830;53.704;10.004;2023-02-22T15:21:23;18.08;;;10.73;;
45065;SDS011;30830;53.704;10.004;2023-02-22T15:23:52;15.25;;;9.05;;
45065;SDS011;30830;53.704;10.004;2023-02-22T15:26:34;17.58;;;10.60;;
45065;SDS011;30830;53.704;10.004;2023-02-22T15:29:09;17.98;;;10.13;;
45065;SDS011;30830;53.704;10.004;2023-02-22T15:31:47;15.68;;;10.50;;
45065;SDS011;30830;53.704;10.004;2023-02-22T15:36:39;14.57;;;10.52;;
45065;SDS011;30830;53.704;10.004;2023-02-22T15:39:21;16.08;;;9.70;;
45065;SDS011;30830;53.704;10.004;2023-02-22T15:42:13;20.08;;;10.27;;
45065;SDS011;30830;53.704;10.004;2023-02-22T15:44:48;15.10;;;9.95;;
45065;SDS011;30830;53.704;10.004;2023-02-22T15:55:25;16.30;;;9.73;;
45065;SDS011;30830;53.704;10.004;2023-02-22T15:57:58;19.40;;;11.18;;
45065;SDS011;30830;53.704;10.004;2023-02-22T16:00:35;17.77;;;10.20;;
45065;SDS011;30830;53.704;10.004;2023-02-22T16:03:13;15.88;;;10.25;;
45065;SDS011;30830;53.704;10.004;2023-02-22T16:05:44;16.80;;;9.52;;
45065;SDS011;30830;53.704;10.004;2023-02-22T16:08:21;16.65;;;9.60;;
45065;SDS011;30830;53.704;10.004;2023-02-22T16:13:44;18.02;;;10.98;;
45065;SDS011;30830;53.704;10.004;2023-02-22T16:18:45;17.05;;;10.00;;
45065;SDS011;30830;53.704;10.004;2023-02-22T16:21:13;19.00;;;10.90;;
45065;SDS011;30830;53.704;10.004;2023-02-22T16:23:49;19.42;;;11.73;;
45065;SDS011;30830;53.704;10.004;2023-02-22T16:26:18;16.25;;;10.45;;
45065;SDS011;30830;53.704;10.004;2023-02-22T16:28:55;16.50;;;10.52;;
45065;SDS011;30830;53.704;10.004;2023-02-22T16:31:27;16.37;;;9.90;;
45065;SDS011;30830;53.704;10.004;2023-02-22T16:34:01;17.15;;;10.32;;
45065;SDS011;30830;53.704;10.004;2023-02-22T16:36:41;17.45;;;11.93;;
45065;SDS011;30830;53.704;10.004;2023-02-22T16:39:25;18.35;;;13.73;;
45065;SDS011;30830;53.704;10.004;2023-02-22T16:41:53;19.65;;;12.93;;
45065;SDS011;30830;53.704;10.004;2023-02-22T16:44:25;21.15;;;11.88;;
45065;SDS011;30830;53.704;10.004;2023-02-22T16:46:52;16.58;;;11.20;;
45065;SDS011;30830;53.704;10.004;2023-02-22T16:49:19;17.33;;;11.15;;
45065;SDS011;30830;53.704;10.004;2023-02-22T16:51:51;15.77;;;9.82;;
45065;SDS011;30830;53.704;10.004;2023-02-22T16:57:20;15.75;;;9.05;;